createdAt,value
2018-11-01T00:01:21.267Z,10.73
2018-11-01T00:03:49.681Z,13.10
2018-11-01T00:06:18.028Z,17.33
2018-11-01T00:08:46.236Z,18.37
2018-11-01T00:11:14.786Z,20.93
2018-11-01T00:13:43.174Z,15.33
2018-11-01T00:16:11.322Z,20.50
2018-11-01T00:18:39.442Z,13.77
2018-11-01T00:24:10.589Z,15.20
2018-11-01T00:46:52.525Z,16.77
2018-11-01T00:49:20.879Z,21.93
2018-11-01T00:51:48.989Z,13.50
2018-11-01T00:54:17.192Z,16.67
2018-11-01T00:56:45.633Z,17.57
2018-11-01T00:59:13.842Z,16.37
2018-11-01T01:01:41.876Z,13.63
2018-11-01T01:04:09.674Z,14.10
2018-11-01T01:06:37.900Z,16.10
2018-11-01T01:09:07.788Z,18.80
2018-11-01T01:11:35.722Z,17.03
2018-11-01T01:14:03.793Z,18.23
2018-11-01T01:33:57.172Z,15.63
2018-11-01T01:36:25.484Z,19.53
2018-11-01T01:38:53.689Z,13.83
2018-11-01T01:41:21.838Z,15.13
2018-11-01T01:43:49.857Z,18.87
2018-11-01T01:46:17.903Z,14.67
2018-11-01T01:48:46.220Z,15.33
2018-11-01T01:51:14.388Z,18.67
2018-11-01T01:53:42.457Z,21.60
2018-11-01T01:56:10.396Z,19.50
2018-11-01T01:58:38.441Z,16.27
2018-11-01T02:01:06.522Z,14.20
2018-11-01T02:03:34.620Z,9.83
2018-11-01T02:06:02.669Z,10.77
2018-11-01T02:08:30.756Z,9.80
2018-11-01T02:10:58.831Z,10.00
2018-11-01T02:13:27.000Z,9.00
2018-11-01T02:15:55.137Z,10.70
2018-11-01T02:18:23.196Z,8.73
2018-11-01T02:20:51.533Z,9.13
2018-11-01T02:23:19.905Z,12.50
2018-11-01T02:25:48.294Z,9.47
2018-11-01T02:28:17.533Z,11.57
2018-11-01T02:30:45.896Z,10.00
2018-11-01T02:50:33.221Z,12.70
2018-11-01T02:53:01.110Z,12.60
2018-11-01T02:55:29.185Z,11.70
2018-11-01T02:57:57.300Z,11.37
2018-11-01T03:00:25.501Z,12.70
2018-11-01T03:02:53.675Z,12.93
2018-11-01T03:05:21.964Z,15.10
2018-11-01T03:07:49.860Z,13.20
2018-11-01T03:10:17.928Z,12.37
2018-11-01T03:12:46.173Z,16.13
2018-11-01T03:15:14.961Z,18.63
2018-11-01T03:17:43.033Z,14.23
2018-11-01T03:20:11.739Z,13.60
2018-11-01T03:22:40.008Z,14.73
2018-11-01T03:25:08.285Z,10.90
2018-11-01T03:27:36.618Z,10.63
2018-11-01T03:30:04.734Z,14.00
2018-11-01T03:32:33.006Z,13.03
2018-11-01T03:35:01.411Z,16.07
2018-11-01T03:37:29.495Z,23.17
2018-11-01T03:39:57.530Z,16.80
2018-11-01T03:42:25.808Z,17.37
2018-11-01T03:44:53.993Z,15.77
2018-11-01T03:47:22.627Z,15.80
2018-11-01T03:49:50.741Z,16.67
2018-11-01T03:52:18.907Z,20.30
2018-11-01T03:54:47.068Z,20.40
2018-11-01T03:57:15.264Z,19.10
2018-11-01T03:59:43.355Z,17.93
2018-11-01T04:02:11.611Z,17.77
2018-11-01T04:04:39.669Z,18.80
2018-11-01T04:07:07.668Z,22.13
2018-11-01T04:09:35.690Z,17.13
2018-11-01T04:12:03.781Z,17.43
2018-11-01T04:14:31.981Z,15.93
2018-11-01T04:17:00.234Z,13.87
2018-11-01T04:19:28.429Z,17.37
2018-11-01T04:22:05.984Z,15.07
2018-11-01T04:24:35.428Z,16.53
2018-11-01T04:27:04.101Z,12.43
2018-11-01T04:29:33.318Z,13.60
2018-11-01T04:49:21.400Z,6.50
2018-11-01T04:51:49.668Z,12.07
2018-11-01T04:54:17.434Z,14.67
2018-11-01T04:56:45.776Z,4.93
2018-11-01T04:59:13.988Z,10.37
2018-11-01T05:19:07.046Z,8.73
2018-11-01T05:21:35.861Z,4.87
2018-11-01T05:24:04.226Z,6.23
2018-11-01T05:26:33.220Z,4.27
2018-11-01T05:29:01.302Z,10.50
2018-11-01T05:31:29.366Z,9.80
2018-11-01T05:33:57.885Z,5.43
2018-11-01T05:36:26.014Z,3.80
2018-11-01T05:38:54.073Z,2.70
2018-11-01T05:41:22.572Z,6.00
2018-11-01T05:43:50.902Z,7.00
2018-11-01T05:46:19.224Z,5.17
2018-11-01T05:48:47.868Z,7.87
2018-11-01T05:51:15.991Z,4.03
2018-11-01T05:53:43.893Z,5.23
2018-11-01T05:56:11.969Z,10.43
2018-11-01T05:58:40.203Z,6.33
2018-11-01T06:01:11.772Z,9.40
2018-11-01T06:03:40.065Z,5.37
2018-11-01T06:06:08.228Z,4.67
2018-11-01T06:08:39.357Z,4.87
2018-11-01T06:11:07.794Z,11.23
2018-11-01T06:13:35.824Z,8.03
2018-11-01T06:16:03.928Z,12.07
2018-11-01T06:18:32.149Z,8.83
2018-11-01T06:21:00.588Z,10.23
2018-11-01T06:23:28.892Z,13.63
2018-11-01T06:25:57.092Z,11.20
2018-11-01T06:28:25.373Z,13.47
2018-11-01T06:30:53.420Z,12.03
2018-11-01T06:33:21.702Z,12.67
2018-11-01T06:35:51.640Z,10.80
2018-11-01T06:38:19.777Z,9.67
2018-11-01T06:40:47.998Z,10.60
2018-11-01T06:43:16.100Z,11.70
2018-11-01T06:45:44.338Z,10.27
2018-11-01T06:48:12.391Z,8.20
2018-11-01T06:50:40.366Z,11.33
2018-11-01T06:53:08.438Z,13.87
2018-11-01T06:55:36.741Z,11.03
2018-11-01T06:58:04.733Z,13.00
2018-11-01T07:00:32.922Z,10.77
2018-11-01T07:03:01.255Z,14.43
2018-11-01T07:05:29.675Z,12.73
2018-11-01T07:07:57.708Z,14.23
2018-11-01T07:10:25.956Z,12.10
2018-11-01T07:12:54.196Z,13.00
2018-11-01T07:15:22.432Z,13.67
2018-11-01T07:17:50.345Z,15.60
2018-11-01T07:20:18.581Z,10.53
2018-11-01T07:22:47.119Z,14.70
2018-11-01T07:25:16.603Z,14.70
2018-11-01T07:27:44.780Z,16.43
2018-11-01T07:30:14.045Z,15.90
2018-11-01T07:32:42.432Z,15.07
2018-11-01T07:35:11.416Z,15.17
2018-11-01T07:37:40.104Z,11.17
2018-11-01T07:40:09.273Z,11.60
2018-11-01T07:42:37.401Z,12.03
2018-11-01T07:45:05.739Z,10.10
2018-11-01T07:47:33.948Z,11.63
2018-11-01T07:50:01.899Z,10.00
2018-11-01T07:52:30.077Z,8.37
2018-11-01T07:54:58.161Z,9.93
2018-11-01T07:57:26.396Z,7.90
2018-11-01T07:59:54.468Z,8.80
2018-11-01T08:02:22.444Z,6.93
2018-11-01T08:04:50.652Z,6.00
2018-11-01T08:07:19.072Z,5.20
2018-11-01T08:09:47.513Z,4.27
2018-11-01T08:12:15.892Z,5.53
2018-11-01T08:14:44.268Z,3.90
2018-11-01T08:17:12.533Z,5.20
2018-11-01T08:19:40.747Z,2.20
2018-11-01T08:22:09.021Z,2.40
2018-11-01T08:24:37.221Z,3.97
2018-11-01T08:27:05.480Z,4.83
2018-11-01T08:29:33.626Z,5.57
2018-11-01T08:32:01.882Z,4.90
2018-11-01T08:34:29.977Z,7.70
2018-11-01T08:36:58.362Z,6.40
2018-11-01T08:39:26.294Z,7.97
2018-11-01T08:41:54.505Z,7.93
2018-11-01T08:44:23.185Z,5.33
2018-11-01T08:46:51.865Z,6.63
2018-11-01T08:49:20.033Z,4.67
2018-11-01T08:51:48.440Z,8.37
2018-11-01T08:54:16.690Z,5.73
2018-11-01T08:56:44.772Z,7.23
2018-11-01T08:59:12.845Z,5.80
2018-11-01T09:01:41.018Z,5.87
2018-11-01T09:04:09.457Z,4.27
2018-11-01T09:06:37.484Z,8.07
2018-11-01T09:09:06.241Z,7.73
2018-11-01T09:11:34.554Z,8.73
2018-11-01T09:14:02.644Z,6.07
2018-11-01T09:16:31.181Z,4.87
2018-11-01T09:18:59.373Z,7.33
2018-11-01T09:21:27.565Z,4.87
2018-11-01T09:23:55.724Z,6.60
2018-11-01T09:26:24.212Z,8.07
2018-11-01T09:28:52.485Z,7.33
2018-11-01T09:31:20.662Z,6.60
2018-11-01T09:33:49.069Z,12.07
2018-11-01T09:36:17.325Z,12.27
2018-11-01T09:38:45.383Z,13.03
2018-11-01T09:41:13.489Z,14.50
2018-11-01T09:43:41.373Z,12.40
2018-11-01T09:46:09.490Z,15.30
2018-11-01T09:48:37.842Z,13.97
2018-11-01T09:51:06.017Z,15.70
2018-11-01T09:53:34.585Z,12.07
2018-11-01T09:56:02.765Z,12.00
2018-11-01T09:58:30.687Z,14.93
2018-11-01T10:00:58.691Z,13.10
2018-11-01T10:03:26.837Z,13.53
2018-11-01T10:05:54.826Z,14.73
2018-11-01T10:08:22.976Z,12.40
2018-11-01T10:10:51.375Z,14.67
2018-11-01T10:13:19.424Z,15.20
2018-11-01T10:15:47.532Z,16.47
2018-11-01T10:18:16.108Z,13.97
2018-11-01T10:20:43.995Z,13.70
2018-11-01T10:23:12.301Z,14.53
2018-11-01T10:25:41.336Z,11.90
2018-11-01T10:28:09.581Z,20.33
2018-11-01T10:30:37.557Z,14.70
2018-11-01T10:33:06.526Z,13.80
2018-11-01T10:35:34.864Z,12.73
2018-11-01T10:38:03.253Z,15.63
2018-11-01T10:40:31.610Z,12.87
2018-11-01T10:42:59.690Z,11.10
2018-11-01T10:45:27.768Z,11.57
2018-11-01T10:47:56.656Z,15.90
2018-11-01T11:07:44.864Z,15.03
2018-11-01T11:10:13.114Z,19.90
2018-11-01T11:12:41.470Z,16.90
2018-11-01T11:15:09.909Z,17.10
2018-11-01T11:17:38.531Z,13.93
2018-11-01T11:20:07.030Z,14.27
2018-11-01T11:22:35.241Z,18.33
2018-11-01T11:25:03.420Z,12.20
2018-11-01T11:27:31.525Z,15.40
2018-11-01T11:29:59.860Z,15.13
2018-11-01T11:32:28.065Z,12.87
2018-11-01T11:34:56.035Z,13.80
2018-11-01T11:37:24.239Z,10.20
2018-11-01T11:39:52.512Z,10.40
2018-11-01T11:42:21.109Z,6.53
2018-11-01T11:44:49.375Z,5.00
2018-11-01T11:47:17.171Z,8.37
2018-11-01T11:49:45.225Z,6.77
2018-11-01T11:52:13.872Z,7.07
2018-11-01T11:54:42.401Z,6.87
2018-11-01T11:57:10.855Z,8.10
2018-11-01T11:59:39.040Z,5.90
2018-11-01T12:19:26.517Z,10.40
2018-11-01T12:21:54.863Z,8.40
2018-11-01T12:24:23.249Z,11.23
2018-11-01T12:29:26.453Z,10.60
2018-11-01T12:31:54.737Z,7.67
2018-11-01T12:34:22.632Z,9.47
2018-11-01T12:36:50.976Z,11.07
2018-11-01T12:39:18.749Z,9.13
2018-11-01T12:41:46.859Z,10.97
2018-11-01T12:44:15.099Z,6.80
2018-11-01T12:46:43.376Z,11.47
2018-11-01T12:49:11.521Z,7.50
2018-11-01T12:51:40.064Z,10.93
2018-11-01T12:54:08.316Z,10.23
2018-11-01T12:56:36.357Z,8.30
2018-11-01T12:59:04.379Z,11.80
2018-11-01T13:01:32.379Z,17.27
2018-11-01T13:04:00.607Z,13.27
2018-11-01T13:06:28.780Z,8.17
2018-11-01T13:08:57.062Z,8.17
2018-11-01T13:11:25.429Z,8.33
2018-11-01T13:13:53.500Z,5.30
2018-11-01T13:16:21.440Z,5.73
2018-11-01T13:18:49.650Z,4.37
2018-11-01T13:21:17.845Z,9.70
2018-11-01T13:23:46.145Z,6.70
2018-11-01T13:26:14.338Z,10.03
2018-11-01T13:28:42.360Z,9.53
2018-11-01T13:31:10.309Z,15.17
2018-11-01T13:33:38.255Z,5.87
2018-11-01T13:36:06.472Z,3.53
2018-11-01T13:38:34.541Z,5.13
2018-11-01T13:41:03.634Z,5.30
2018-11-01T13:43:31.302Z,4.43
2018-11-01T13:45:59.677Z,5.03
2018-11-01T13:48:28.121Z,6.27
2018-11-01T13:50:55.920Z,3.93
2018-11-01T13:53:24.321Z,2.00
2018-11-01T13:55:52.694Z,3.13
2018-11-01T13:58:20.820Z,8.10
2018-11-01T14:00:48.857Z,5.37
2018-11-01T14:03:16.800Z,6.47
2018-11-01T14:05:44.909Z,3.77
2018-11-01T14:08:13.412Z,3.20
2018-11-01T14:10:41.743Z,2.63
2018-11-01T14:13:10.222Z,4.57
2018-11-01T14:15:38.297Z,4.07
2018-11-01T14:18:06.299Z,3.20
2018-11-01T14:20:34.412Z,3.20
2018-11-01T14:23:02.623Z,3.00
2018-11-01T14:25:30.844Z,2.13
2018-11-01T14:27:58.844Z,1.60
2018-11-01T14:30:27.285Z,1.13
2018-11-01T14:32:55.345Z,1.50
2018-11-01T14:35:23.426Z,0.83
2018-11-01T14:55:12.833Z,2.90
2018-11-01T14:57:40.658Z,3.30
2018-11-01T15:00:07.993Z,4.50
2018-11-01T15:02:36.129Z,7.40
2018-11-01T15:05:04.250Z,4.10
2018-11-01T15:07:32.558Z,3.50
2018-11-01T15:10:00.966Z,8.00
2018-11-01T15:29:49.807Z,12.77
2018-11-01T15:32:23.248Z,14.67
2018-11-01T15:34:51.512Z,14.13
2018-11-01T15:37:19.900Z,14.73
2018-11-01T15:39:47.965Z,12.60
2018-11-01T15:42:15.985Z,13.30
2018-11-01T15:44:44.083Z,16.20
2018-11-01T15:47:12.576Z,11.07
2018-11-01T15:49:40.650Z,12.10
2018-11-01T15:52:08.842Z,8.13
2018-11-01T15:54:37.065Z,9.57
2018-11-01T15:57:05.201Z,8.47
2018-11-01T15:59:33.627Z,8.27
2018-11-01T16:02:01.941Z,6.50
2018-11-01T16:04:29.969Z,6.73
2018-11-01T16:24:18.852Z,5.87
2018-11-01T16:26:49.376Z,5.80
2018-11-01T16:29:19.043Z,4.40
2018-11-01T16:31:47.393Z,5.77
2018-11-01T16:34:15.753Z,4.57
2018-11-01T16:36:44.290Z,5.77
2018-11-01T16:39:12.533Z,5.53
2018-11-01T16:41:40.573Z,4.30
2018-11-01T16:44:09.581Z,5.43
2018-11-01T16:46:37.760Z,5.47
2018-11-01T16:49:06.104Z,6.47
2018-11-01T16:51:34.293Z,6.77
2018-11-01T16:54:02.347Z,5.53
2018-11-01T16:56:30.580Z,9.30
2018-11-01T16:58:58.924Z,6.87
2018-11-01T17:01:27.305Z,8.50
2018-11-01T17:03:55.392Z,6.50
2018-11-01T17:06:23.348Z,6.63
2018-11-01T17:08:51.536Z,6.17
2018-11-01T17:11:19.806Z,6.07
2018-11-01T17:13:47.973Z,5.17
2018-11-01T17:16:16.061Z,5.43
2018-11-01T17:18:44.304Z,5.10
2018-11-01T17:21:12.779Z,6.10
2018-11-01T17:23:40.956Z,6.10
2018-11-01T17:26:09.151Z,6.13
2018-11-01T17:28:37.401Z,7.17
2018-11-01T17:31:05.715Z,5.80
2018-11-01T17:33:33.961Z,11.87
2018-11-01T17:36:01.925Z,20.77
2018-11-01T17:38:30.179Z,18.80
2018-11-01T17:40:58.982Z,7.10
2018-11-01T17:43:27.240Z,7.87
2018-11-01T17:45:55.464Z,7.70
2018-11-01T17:48:23.544Z,5.77
2018-11-01T17:50:51.828Z,6.30
2018-11-01T17:53:19.921Z,6.67
2018-11-01T17:55:48.012Z,8.03
2018-11-01T17:58:16.244Z,5.40
2018-11-01T18:00:44.470Z,8.27
2018-11-01T18:03:12.709Z,8.73
2018-11-01T18:05:40.898Z,6.90
2018-11-01T18:08:09.409Z,6.20
2018-11-01T18:10:37.432Z,6.77
2018-11-01T18:13:05.329Z,7.97
2018-11-01T18:15:33.356Z,7.20
2018-11-01T18:18:01.537Z,7.47
2018-11-01T18:20:29.904Z,7.13
2018-11-01T18:22:57.919Z,7.53
2018-11-01T18:25:26.250Z,6.80
2018-11-01T18:27:54.180Z,7.87
2018-11-01T18:30:22.307Z,7.60
2018-11-01T18:32:50.447Z,7.63
2018-11-01T18:35:18.568Z,8.73
2018-11-01T18:37:47.103Z,9.13
2018-11-01T18:40:16.386Z,11.03
2018-11-01T18:42:44.741Z,9.77
2018-11-01T18:45:13.928Z,11.33
2018-11-01T18:47:42.456Z,13.50
2018-11-01T18:50:11.895Z,11.90
2018-11-01T18:52:39.894Z,10.03
2018-11-01T18:55:08.787Z,9.20
2018-11-01T18:57:37.064Z,11.97
2018-11-01T19:00:06.568Z,11.57
2018-11-01T19:02:34.552Z,12.30
2018-11-01T19:05:02.727Z,9.60
2018-11-01T19:07:30.862Z,10.53
2018-11-01T19:09:59.080Z,8.63
2018-11-01T19:12:27.536Z,10.90
2018-11-01T19:14:55.837Z,10.83
2018-11-01T19:17:23.902Z,9.77
2018-11-01T19:19:52.152Z,11.17
2018-11-01T19:22:20.220Z,12.07
2018-11-01T19:24:48.314Z,9.87
2018-11-01T19:27:16.529Z,9.30
2018-11-01T19:29:44.565Z,11.40
2018-11-01T19:32:12.847Z,10.70
2018-11-01T19:34:40.946Z,11.13
2018-11-01T19:37:09.116Z,11.13
2018-11-01T19:39:37.207Z,10.20
2018-11-01T19:42:05.470Z,11.70
2018-11-01T19:44:33.917Z,9.57
2018-11-01T19:47:02.198Z,12.30
2018-11-01T19:49:30.177Z,12.43
2018-11-01T19:51:58.179Z,12.57
2018-11-01T19:54:26.467Z,13.03
2018-11-01T19:56:54.780Z,11.03
2018-11-01T19:59:22.689Z,10.67
2018-11-01T20:01:51.359Z,11.33
2018-11-01T20:04:19.665Z,9.57
2018-11-01T20:06:48.096Z,9.63
2018-11-01T20:09:16.507Z,9.57
2018-11-01T20:11:44.556Z,10.00
2018-11-01T20:14:12.514Z,11.03
2018-11-01T20:16:40.963Z,10.70
2018-11-01T20:19:09.458Z,8.13
2018-11-01T20:21:37.431Z,8.63
2018-11-01T20:24:05.221Z,6.87
2018-11-01T20:26:33.301Z,8.83
2018-11-01T20:29:01.709Z,8.10
2018-11-01T20:31:29.829Z,9.10
2018-11-01T20:33:57.987Z,7.70
2018-11-01T20:36:26.440Z,9.00
2018-11-01T20:38:54.582Z,9.57
2018-11-01T20:41:22.962Z,7.63
2018-11-01T20:43:51.263Z,6.97
2018-11-01T20:46:19.427Z,10.23
2018-11-01T20:48:47.807Z,8.60
2018-11-01T20:51:15.629Z,7.90
2018-11-01T20:53:43.952Z,7.33
2018-11-01T20:56:12.197Z,7.23
2018-11-01T20:58:40.305Z,9.20
2018-11-01T21:01:08.666Z,8.40
2018-11-01T21:03:37.386Z,6.87
2018-11-01T21:06:05.747Z,6.53
2018-11-01T21:08:33.932Z,7.20
2018-11-01T21:11:02.259Z,7.70
2018-11-01T21:13:30.119Z,6.53
2018-11-01T21:15:58.336Z,9.67
2018-11-01T21:18:26.247Z,7.30
2018-11-01T21:20:54.468Z,10.70
2018-11-01T21:23:22.548Z,6.43
2018-11-01T21:25:50.514Z,6.77
2018-11-01T21:28:18.816Z,5.07
2018-11-01T21:30:47.195Z,6.87
2018-11-01T21:33:15.459Z,5.73
2018-11-01T21:35:43.603Z,6.17
2018-11-01T21:38:11.702Z,5.47
2018-11-01T21:40:40.248Z,6.70
2018-11-01T21:43:08.217Z,6.77
2018-11-01T21:45:36.302Z,6.40
2018-11-01T21:48:04.424Z,8.90
2018-11-01T21:50:32.561Z,9.97
2018-11-01T21:53:00.668Z,8.27
2018-11-01T21:55:28.844Z,6.00
2018-11-01T21:57:57.242Z,7.30
2018-11-01T22:00:25.613Z,6.50
2018-11-01T22:02:53.844Z,4.73
2018-11-01T22:05:21.977Z,6.33
2018-11-01T22:07:50.125Z,7.27
2018-11-01T22:10:18.122Z,6.93
2018-11-01T22:12:46.600Z,6.73
2018-11-01T22:15:14.955Z,5.83
2018-11-01T22:17:43.219Z,7.70
2018-11-01T22:23:25.337Z,7.23
2018-11-01T22:25:54.603Z,7.67
2018-11-01T22:28:23.704Z,7.77
2018-11-01T22:30:52.656Z,6.63
2018-11-01T22:33:21.868Z,13.50
2018-11-01T22:35:51.567Z,8.13
2018-11-01T22:38:20.732Z,8.13
2018-11-01T22:40:49.801Z,10.87
2018-11-01T22:43:19.679Z,8.50
2018-11-01T22:45:48.716Z,8.37
2018-11-01T22:48:17.590Z,8.20
2018-11-01T22:50:46.729Z,10.37
2018-11-01T22:53:15.746Z,11.20
2018-11-01T22:55:45.481Z,13.10
2018-11-01T22:58:15.153Z,10.77
2018-11-01T23:00:45.323Z,10.43
2018-11-01T23:03:14.961Z,9.40
2018-11-01T23:05:44.854Z,9.80
2018-11-01T23:08:14.015Z,12.80
2018-11-01T23:10:43.781Z,11.40
2018-11-01T23:13:12.876Z,10.10
2018-11-01T23:15:41.889Z,12.37
2018-11-01T23:18:11.093Z,10.33
2018-11-01T23:20:40.153Z,8.87
2018-11-01T23:23:09.760Z,9.67
2018-11-01T23:25:39.037Z,7.50
2018-11-01T23:28:07.981Z,11.10
2018-11-01T23:30:36.960Z,8.50
2018-11-01T23:33:06.926Z,12.03
2018-11-01T23:35:35.977Z,9.65
2018-11-01T23:38:10.909Z,12.20
2018-11-01T23:40:45.452Z,12.13
2018-11-01T23:43:20.025Z,10.20
2018-11-01T23:45:54.294Z,11.83
2018-11-01T23:48:22.813Z,12.17
2018-11-01T23:50:56.785Z,10.93
2018-11-01T23:53:28.188Z,11.93
2018-11-01T23:55:58.087Z,12.03
2018-11-01T23:58:27.600Z,10.43
